Sea Imp Xi — CFFC — position and weather

sailwx.info

Track history (hours):
 
Tides and Currents Weather Stations Pressure Air Temp Water Temp Dewpoint Dewpoint Depression Visibility Wind Speed Wind Dir Waves Ship Positions

Sea Imp Xi

Last reported at 2018-Feb-25 01:30 UTC. Time now 2018-Feb-25 01:51 UTC.
Position N 49°12' W 123°04'.

Length 16 m; draft 3.6 m.

Type: Tug. MMSI: 316034963.

Date/timePositionNaut miles runAvg speedWind from/ knotsBaromVisibWave heightAir tempDewpointWater temp
2018-Feb-25 01:30N 49°12' W 123°04'0 0.0
2018-Feb-25 01:00N 49°12' W 123°04'0 0.0
2018-Feb-25 00:30N 49°12' W 123°04'0 0.0
2018-Feb-25 00:00N 49°12' W 123°04'0 0.0
2018-Feb-24 23:30N 49°12' W 123°04'0 0.0
2018-Feb-24 23:00N 49°12' W 123°04'0 0.0
2018-Feb-24 22:30N 49°12' W 123°04'0 0.2
2018-Feb-24 22:00N 49°12' W 123°04'0 0.1
2018-Feb-24 21:30N 49°12' W 123°04'0 0.2
2018-Feb-24 21:00N 49°12' W 123°04'0 0.0
2018-Feb-24 20:30N 49°12' W 123°04'0 0.0
2018-Feb-24 20:00N 49°12' W 123°04'0 0.0
2018-Feb-24 19:30N 49°12' W 123°04'0 0.0
2018-Feb-24 19:00N 49°12' W 123°04'0 0.0
2018-Feb-24 18:29N 49°12' W 123°04'0 0.0
2018-Feb-24 18:00N 49°12' W 123°04'0 0.0
2018-Feb-24 17:30N 49°12' W 123°04'0 0.0
2018-Feb-24 16:58N 49°12' W 123°04'0 0.0
2018-Feb-24 16:29N 49°12' W 123°04'0 0.0
2018-Feb-24 16:00N 49°12' W 123°04'0 0.0
2018-Feb-24 15:30N 49°12' W 123°04'0 0.0
2018-Feb-24 14:59N 49°12' W 123°04'0 0.0
2018-Feb-24 14:30N 49°12' W 123°04'0 0.0
2018-Feb-24 14:00N 49°12' W 123°04'0 0.0
2018-Feb-24 13:30N 49°12' W 123°04'0 0.0
2018-Feb-24 13:00N 49°12' W 123°04'0 0.0
2018-Feb-24 12:30N 49°12' W 123°04'0 0.1
2018-Feb-24 12:00N 49°12' W 123°04'4 7.1
2018-Feb-24 11:30N 49°11' W 122°59'2 3.6
2018-Feb-24 11:00N 49°12' W 122°57'0 0.1
2018-Feb-24 10:30N 49°12' W 122°57'1 2.3
2018-Feb-24 10:00N 49°11' W 122°58'2 3.3
2018-Feb-24 09:30N 49°12' W 123°00'2 4.7
2018-Feb-24 09:00N 49°12' W 123°04'2 5.0
2018-Feb-24 08:30N 49°12' W 123°08'3 5.6
2018-Feb-24 08:00N 49°13' W 123°12'3 6.5
2018-Feb-24 07:28N 49°15' W 123°16'2 4.5
2018-Feb-24 07:00N 49°17' W 123°16'3 5.5
2018-Feb-24 06:30N 49°18' W 123°12'3 5.3
2018-Feb-24 06:00N 49°19' W 123°08'2 4.3
2018-Feb-24 05:30N 49°18' W 123°05'3 5.2
2018-Feb-24 05:00N 49°18' W 123°01'3 5.3
2018-Feb-24 04:30N 49°18' W 122°57'3 5.9
2018-Feb-24 04:00N 49°18' W 122°53'0 0.3
2018-Feb-24 03:30N 49°18' W 122°53'0 0.2
2018-Feb-24 03:00N 49°18' W 122°53'0 0.0
2018-Feb-24 02:30N 49°18' W 122°53'0 0.0
2018-Feb-24 02:00N 49°18' W 122°53'0 0.0
2018-Feb-24 01:30N 49°18' W 122°53'0 0.0
2018-Feb-24 01:00N 49°18' W 122°53'0 0.3
2018-Feb-24 00:30N 49°18' W 122°52'0 0.3
2018-Feb-24 00:00N 49°18' W 122°53'4 8.1
2018-Feb-23 23:30N 49°18' W 122°59'3 6.3
2018-Feb-23 23:00N 49°18' W 123°04'3 6.2
2018-Feb-23 22:30N 49°19' W 123°08'3 6.5
2018-Feb-23 22:00N 49°19' W 123°13'3 6.7
2018-Feb-23 21:30N 49°17' W 123°18'4 8.4
2018-Feb-23 21:00N 49°14' W 123°13'4 8.1
2018-Feb-23 20:30N 49°12' W 123°08'4 7.8
2018-Feb-23 20:00N 49°12' W 123°02'3 6.1
2018-Feb-23 19:30N 49°12' W 122°57'2 4.1
2018-Feb-23 19:00N 49°10' W 122°56'3 5.9
2018-Feb-23 18:30N 49°09' W 123°01'0 0.1
2018-Feb-23 18:00N 49°09' W 123°01'1 1.3
2018-Feb-23 17:30N 49°09' W 123°02'1 1.3
2018-Feb-23 17:00N 49°09' W 123°01'3 6.2
2018-Feb-23 16:30N 49°10' W 122°56'2 4.3
2018-Feb-23 16:00N 49°12' W 122°57'2 4.1
2018-Feb-23 15:30N 49°11' W 122°59'3 6.2
2018-Feb-23 15:00N 49°12' W 123°04'0 0.0
2018-Feb-23 14:30N 49°12' W 123°04'0 0.0
2018-Feb-23 14:00N 49°12' W 123°04'0 0.0
2018-Feb-23 13:30N 49°12' W 123°04'0 0.0
2018-Feb-23 13:00N 49°12' W 123°04'0 0.0
2018-Feb-23 12:29N 49°12' W 123°04'0 0.0
2018-Feb-23 12:00N 49°12' W 123°04'0 0.0
2018-Feb-23 11:30N 49°12' W 123°04'0 0.0
2018-Feb-23 11:00N 49°12' W 123°04'0 0.0
2018-Feb-23 10:30N 49°12' W 123°04'0 0.0
2018-Feb-23 10:00N 49°12' W 123°04'0 0.0
2018-Feb-23 09:30N 49°12' W 123°04'0 0.0
2018-Feb-23 09:00N 49°12' W 123°04'0 0.0
2018-Feb-23 08:30N 49°12' W 123°04'0 0.0
2018-Feb-23 07:59N 49°12' W 123°04'0 0.0
2018-Feb-23 07:30N 49°12' W 123°04'0 0.0
2018-Feb-23 07:00N 49°12' W 123°04'0 0.0
2018-Feb-23 06:30N 49°12' W 123°04'0 0.0
2018-Feb-23 05:59N 49°12' W 123°04'0 0.0
2018-Feb-23 05:30N 49°12' W 123°04'0 0.0
2018-Feb-23 05:00N 49°12' W 123°04'0 0.0
2018-Feb-23 04:30N 49°12' W 123°04'0 0.1
2018-Feb-23 04:00N 49°12' W 123°04'0 0.1
2018-Feb-23 03:30N 49°12' W 123°04'0 0.0
2018-Feb-23 02:59N 49°12' W 123°04'0 0.0
2018-Feb-23 02:30N 49°12' W 123°04'0 0.0
2018-Feb-23 02:00N 49°12' W 123°04'0 0.0
2018-Feb-23 01:30N 49°12' W 123°04'0 0.1
2018-Feb-23 01:00N 49°12' W 123°04'0 0.0
2018-Feb-23 00:30N 49°12' W 123°04'0 0.0
2018-Feb-23 00:00N 49°12' W 123°04'0 0.0
2018-Feb-22 23:30N 49°12' W 123°04'0 0.0
2018-Feb-22 23:00N 49°12' W 123°04'0 0.0
2018-Feb-22 22:30N 49°12' W 123°04'2 3.7
2018-Feb-22 22:00N 49°12' W 123°01'3 6.8
2018-Feb-22 21:30N 49°12' W 122°56'4 7.8
2018-Feb-22 21:00N 49°13' W 122°50'3 5.1
2018-Feb-22 20:29N 49°14' W 122°46'2 4.0
2018-Feb-22 20:00N 49°15' W 122°44'1 1.3
2018-Feb-22 19:30N 49°15' W 122°43'1 2.9
2018-Feb-22 19:00N 49°17' W 122°42'2 3.8
2018-Feb-22 18:30N 49°18' W 122°40'0 0.2
2018-Feb-22 18:01N 49°18' W 122°40'0 0.1
2018-Feb-22 17:31N 49°17' W 122°40'3 5.0
2018-Feb-22 17:00N 49°16' W 122°43'2 4.0
2018-Feb-22 16:30N 49°14' W 122°45'3 5.4
2018-Feb-22 16:00N 49°13' W 122°48'0 0.0
2018-Feb-22 15:30N 49°13' W 122°48'0 0.0
2018-Feb-22 15:00N 49°13' W 122°48'0 0.0
2018-Feb-22 14:30N 49°13' W 122°48'0 0.0
2018-Feb-22 14:00N 49°13' W 122°48'0 0.7
2018-Feb-22 13:30N 49°13' W 122°48'2 4.8
2018-Feb-22 13:00N 49°14' W 122°45'2 3.0
2018-Feb-22 12:30N 49°14' W 122°47'2 4.2
2018-Feb-22 12:00N 49°13' W 122°50'0 0.2
2018-Feb-22 11:30N 49°13' W 122°50'0 0.0
2018-Feb-22 11:00N 49°13' W 122°50'0 0.0
2018-Feb-22 10:30N 49°13' W 122°50'0 0.0
2018-Feb-22 10:00N 49°13' W 122°50'0 0.0
2018-Feb-22 09:30N 49°13' W 122°50'3 5.1
2018-Feb-22 09:00N 49°12' W 122°54'4 7.3
2018-Feb-22 08:30N 49°11' W 122°59'3 6.7
2018-Feb-22 08:00N 49°12' W 123°03'1 2.8
2018-Feb-22 07:30N 49°12' W 123°05'0 0.6
2018-Feb-22 07:00N 49°12' W 123°05'0 0.8
2018-Feb-22 06:30N 49°12' W 123°05'3 6.8
2018-Feb-22 06:00N 49°13' W 123°11'4 8.8
2018-Feb-22 05:30N 49°15' W 123°16'3 5.9
2018-Feb-22 05:00N 49°15' W 123°21'3 5.9
2018-Feb-22 04:29N 49°15' W 123°16'3 5.4
2018-Feb-22 04:00N 49°13' W 123°13'3 5.4
2018-Feb-22 03:30N 49°12' W 123°09'2 4.3
2018-Feb-22 03:00N 49°12' W 123°06'0 0.7
2018-Feb-22 02:30N 49°12' W 123°05'0 0.0
2018-Feb-22 02:00N 49°12' W 123°05'0 0.0
2018-Feb-22 01:28N 49°12' W 123°05'0 0.0
2018-Feb-22 00:59N 49°12' W 123°05'0 1.0
2018-Feb-22 00:30N 49°12' W 123°05'1 1.1
2018-Feb-22 00:00N 49°12' W 123°04'0 0.0
2018-Feb-21 23:30N 49°12' W 123°04'1 2.1
2018-Feb-21 23:00N 49°12' W 123°05'3 5.6
2018-Feb-21 22:30N 49°13' W 123°10'3 6.2
2018-Feb-21 22:00N 49°14' W 123°14'3 6.0
2018-Feb-21 21:30N 49°16' W 123°17'3 5.6
2018-Feb-21 21:00N 49°18' W 123°14'4 8.5
2018-Feb-21 20:31N 49°19' W 123°08'5 9.4
2018-Feb-21 20:00N 49°18' W 123°01'4 8.8
2018-Feb-21 19:30N 49°18' W 122°54'1 1.6
2018-Feb-21 19:00N 49°18' W 122°53'0 0.9
2018-Feb-21 18:31N 49°17' W 122°52'0 0.6
2018-Feb-21 18:00N 49°17' W 122°52'0 0.0
2018-Feb-21 17:30N 49°17' W 122°52'0 0.0
2018-Feb-21 17:00N 49°17' W 122°52'0 0.4
2018-Feb-21 16:30N 49°17' W 122°52'0 0.0
2018-Feb-21 16:00N 49°17' W 122°52'0 0.3
2018-Feb-21 15:30N 49°17' W 122°52'0 0.1
2018-Feb-21 15:01N 49°17' W 122°52'0 0.2
2018-Feb-21 14:30N 49°17' W 122°52'1 2.4
2018-Feb-21 14:00N 49°18' W 122°54'1 2.5
2018-Feb-21 13:30N 49°18' W 122°55'1 1.2
2018-Feb-21 13:00N 49°18' W 122°56'0 0.7
2018-Feb-21 12:30N 49°18' W 122°56'1 1.3
2018-Feb-21 12:00N 49°18' W 122°57'3 5.2
2018-Feb-21 11:30N 49°18' W 123°01'2 4.1
2018-Feb-21 11:00N 49°18' W 123°04'2 4.3
2018-Feb-21 10:30N 49°18' W 123°07'3 5.3
2018-Feb-21 10:00N 49°19' W 123°11'3 6.2
2018-Feb-21 09:29N 49°18' W 123°16'3 5.6
2018-Feb-21 09:00N 49°16' W 123°18'3 5.8
2018-Feb-21 08:31N 49°13' W 123°18'3 5.8
2018-Feb-21 08:00N 49°10' W 123°18'3 5.5
2018-Feb-21 07:30N 49°07' W 123°19'2 3.9
2018-Feb-21 07:00N 49°07' W 123°16'3 6.1
2018-Feb-21 06:30N 49°07' W 123°11'3 6.4
2018-Feb-21 06:00N 49°07' W 123°06'3 5.9
2018-Feb-21 05:30N 49°09' W 123°03'3 5.4
2018-Feb-21 04:54N 49°09' W 122°58'2 5.0
2018-Feb-21 04:30N 49°11' W 122°55'1 2.7
2018-Feb-21 04:00N 49°12' W 122°56'0 0.2
2018-Feb-21 03:30N 49°12' W 122°57'0 0.0
2018-Feb-21 03:00N 49°12' W 122°57'0 0.2
2018-Feb-21 02:30N 49°12' W 122°57'0 0.0
2018-Feb-21 02:00N 49°12' W 122°57'2 3.3
2018-Feb-21 01:29N 49°12' W 122°54'0 0.8
2018-Feb-21 01:00N 49°12' W 122°53'0 1.0
2018-Feb-21 00:30N 49°13' W 122°53'4 7.6
2018-Feb-20 23:58N 49°13' W 122°47'4 8.5
2018-Feb-20 23:30N 49°12' W 122°41'4 7.0
2018-Feb-20 22:59N 49°12' W 122°35'1 1.6
2018-Feb-20 22:30N 49°11' W 122°34'0 0.0
2018-Feb-20 21:59N 49°11' W 122°34'0 0.0
2018-Feb-20 21:29N 49°11' W 122°34'0 0.0
2018-Feb-20 21:00N 49°11' W 122°34'0 0.0
2018-Feb-20 20:30N 49°11' W 122°34'0 0.3
2018-Feb-20 19:56N 49°11' W 122°34'0 0.2
2018-Feb-20 19:30N 49°11' W 122°34'0 0.1
2018-Feb-20 19:00N 49°11' W 122°34'0 0.0
2018-Feb-20 18:30N 49°11' W 122°34'0 0.0
2018-Feb-20 18:00N 49°11' W 122°34'0 0.0
2018-Feb-20 17:30N 49°11' W 122°34'0 0.0
2018-Feb-20 16:58N 49°11' W 122°34'0 0.0
2018-Feb-20 16:30N 49°11' W 122°34'0 0.0
2018-Feb-20 15:59N 49°11' W 122°34'0 0.2
2018-Feb-20 15:30N 49°11' W 122°34'0 0.1
2018-Feb-20 14:53N 49°11' W 122°34'2 5.7
2018-Feb-20 14:30N 49°13' W 122°36'4 8.0
2018-Feb-20 14:00N 49°12' W 122°42'4 9.0
2018-Feb-20 13:30N 49°13' W 122°49'4 8.0
2018-Feb-20 13:00N 49°12' W 122°55'3 7.1
2018-Feb-20 12:30N 49°10' W 122°59'2 4.1
2018-Feb-20 12:00N 49°11' W 122°57'2 3.5
2018-Feb-20 11:30N 49°10' W 122°59'2 4.9
2018-Feb-20 11:00N 49°11' W 122°55'1 2.7
2018-Feb-20 10:30N 49°12' W 122°57'2 3.6
2018-Feb-20 10:00N 49°12' W 122°54'4 6.8
2018-Feb-20 09:22N 49°13' W 122°48'0 0.0
2018-Feb-20 09:00N 49°13' W 122°48'0 0.0
2018-Feb-20 08:17N 49°13' W 122°48'0 0.0
2018-Feb-20 08:00N 49°13' W 122°48'0 0.0
2018-Feb-20 07:30N 49°13' W 122°48'0 0.0
2018-Feb-20 07:00N 49°13' W 122°48'0 0.1
2018-Feb-20 06:30N 49°13' W 122°48'0 0.0
2018-Feb-20 06:00N 49°13' W 122°48'0 0.0
2018-Feb-20 05:30N 49°13' W 122°48'1 1.3
2018-Feb-20 05:00N 49°13' W 122°49'0 0.1
2018-Feb-20 04:30N 49°13' W 122°49'2 3.3
2018-Feb-20 04:00N 49°13' W 122°51'3 6.9
2018-Feb-20 03:30N 49°12' W 122°56'0 0.8
2018-Feb-20 03:00N 49°12' W 122°57'0 0.1
2018-Feb-20 02:29N 49°12' W 122°57'0 0.7
2018-Feb-20 02:00N 49°12' W 122°56'1 2.1
2018-Feb-20 01:30N 49°12' W 122°55'1 3.0
2018-Feb-20 01:00N 49°13' W 122°53'510.2
2018-Feb-20 00:30N 49°13' W 122°45'4 8.6
2018-Feb-20 00:00N 49°12' W 122°38'3 6.1
2018-Feb-19 23:30N 49°11' W 122°34'0 0.8
2018-Feb-19 22:59N 49°11' W 122°35'2 4.2
2018-Feb-19 22:24N 49°12' W 122°38'2 5.0
2018-Feb-19 22:01N 49°12' W 122°41'3 5.0
2018-Feb-19 21:28N 49°13' W 122°45'2 5.0
2018-Feb-19 21:00N 49°13' W 122°48'3 5.2
2018-Feb-19 20:30N 49°13' W 122°52'2 4.2
2018-Feb-19 20:00N 49°12' W 122°55'1 1.6
2018-Feb-19 19:30N 49°11' W 122°55'1 2.6
2018-Feb-19 19:00N 49°10' W 122°56'2 3.3
2018-Feb-19 18:30N 49°09' W 122°59'2 4.0
2018-Feb-19 18:00N 49°09' W 123°02'2 4.5
2018-Feb-19 17:30N 49°08' W 123°04'3 5.3
2018-Feb-19 17:00N 49°06' W 123°08'3 6.7
2018-Feb-19 16:30N 49°08' W 123°13'3 6.1
2018-Feb-19 16:00N 49°07' W 123°17'2 4.6
2018-Feb-19 15:30N 49°08' W 123°20'3 6.0
2018-Feb-19 14:58N 49°10' W 123°23'3 6.4
2018-Feb-19 14:30N 49°13' W 123°26'4 6.6
2018-Feb-19 13:58N 49°16' W 123°28'4 7.5
2018-Feb-19 13:29N 49°19' W 123°31'3 6.0
2018-Feb-19 13:00N 49°22' W 123°31'2 3.2
2018-Feb-19 12:30N 49°20' W 123°30'4 7.8
2018-Feb-19 12:00N 49°18' W 123°25'4 8.5
2018-Feb-19 11:30N 49°16' W 123°19'4 7.7
2018-Feb-19 11:00N 49°14' W 123°14'4 7.6
2018-Feb-19 10:30N 49°13' W 123°09'4 6.1
2018-Feb-19 09:55N 49°12' W 123°04'0 0.0
2018-Feb-19 09:28N 49°12' W 123°04'0 0.0
2018-Feb-19 08:58N 49°12' W 123°04'0 0.0
2018-Feb-19 08:25N 49°12' W 123°04'0 0.0
2018-Feb-19 08:00N 49°12' W 123°04'0 0.0
2018-Feb-19 07:30N 49°12' W 123°04'0 0.0
2018-Feb-19 07:00N 49°12' W 123°04'0 0.0
2018-Feb-19 06:30N 49°12' W 123°04'0 0.0
2018-Feb-19 05:58N 49°12' W 123°04'0 0.0
2018-Feb-19 05:30N 49°12' W 123°04'0 0.0
2018-Feb-19 05:00N 49°12' W 123°04'0 0.0
2018-Feb-19 04:30N 49°12' W 123°04'0 0.0
2018-Feb-19 04:00N 49°12' W 123°04'0 0.0
2018-Feb-19 03:27N 49°12' W 123°04'0 0.0
2018-Feb-19 03:00N 49°12' W 123°04'0 0.0
2018-Feb-19 02:30N 49°12' W 123°04'0 0.0
2018-Feb-19 01:54N 49°12' W 123°04'0 0.0
2018-Feb-19 01:29N 49°12' W 123°04'0 0.0
2018-Feb-19 01:00N 49°12' W 123°04'0 0.0
2018-Feb-19 00:27N 49°12' W 123°04'0 0.0
2018-Feb-19 00:00N 49°12' W 123°04'0 0.0
2018-Feb-18 23:30N 49°12' W 123°04'0 0.0
2018-Feb-18 23:00N 49°12' W 123°04'0 0.0
2018-Feb-18 22:30N 49°12' W 123°04'0 0.0
2018-Feb-18 21:59N 49°12' W 123°04'0 0.0
2018-Feb-18 21:30N 49°12' W 123°04'0 0.0
2018-Feb-18 20:59N 49°12' W 123°04'0 0.0
2018-Feb-18 20:30N 49°12' W 123°04'0 0.0
2018-Feb-18 19:58N 49°12' W 123°04'0 0.0
2018-Feb-18 19:30N 49°12' W 123°04'0 0.0
2018-Feb-18 18:59N 49°12' W 123°04'0 0.0
2018-Feb-18 18:29N 49°12' W 123°04'0 0.0
2018-Feb-18 18:00N 49°12' W 123°04'0 0.0
2018-Feb-18 17:30N 49°12' W 123°04'0 0.0
2018-Feb-18 16:58N 49°12' W 123°04'0 0.0
2018-Feb-18 16:30N 49°12' W 123°04'0 0.0
2018-Feb-18 16:00N 49°12' W 123°04'0 0.0
2018-Feb-18 15:30N 49°12' W 123°04'1 2.4
2018-Feb-18 15:00N 49°12' W 123°02'3 6.3
2018-Feb-18 14:30N 49°12' W 122°57'1 1.8
2018-Feb-18 14:00N 49°11' W 122°56'1 2.4
2018-Feb-18 13:30N 49°12' W 122°55'3 5.2
2018-Feb-18 13:00N 49°11' W 122°59'3 5.4
2018-Feb-18 12:29N 49°12' W 123°03'4 7.0
2018-Feb-18 11:58N 49°12' W 123°08'3 6.6
2018-Feb-18 11:30N 49°13' W 123°12'4 7.2
2018-Feb-18 11:00N 49°15' W 123°17'2 3.4
2018-Feb-18 10:30N 49°16' W 123°19'2 3.0
2018-Feb-18 09:44N 49°16' W 123°23'1 1.1
2018-Feb-18 09:08N 49°15' W 123°23'0 1.4
2018-Feb-18 08:46N 49°15' W 123°22'1 0.7
2018-Feb-18 07:46N 49°16' W 123°23'1 1.0
2018-Feb-18 07:13N 49°15' W 123°23'0 1.0
2018-Feb-18 06:52N 49°16' W 123°22'0 1.1
2018-Feb-18 06:29N 49°16' W 123°21'2 4.8
2018-Feb-18 06:00N 49°16' W 123°18'3 5.7
2018-Feb-18 05:30N 49°14' W 123°14'3 6.6
2018-Feb-18 04:59N 49°13' W 123°10'3 5.3
2018-Feb-18 04:30N 49°12' W 123°06'3 5.1
2018-Feb-18 04:00N 49°12' W 123°02'3 5.1
2018-Feb-18 03:30N 49°11' W 122°58'2 4.2
2018-Feb-18 02:59N 49°12' W 122°56'1 2.0
2018-Feb-18 02:29N 49°11' W 122°56'0 0.3
2018-Feb-18 01:58N 49°11' W 122°56'0 0.0
2018-Feb-18 01:31N 49°11' W 122°56'0 0.0
2018-Feb-18 01:01N 49°11' W 122°56'0 0.9
2018-Feb-18 00:30N 49°11' W 122°56'1 1.8
2018-Feb-18 00:00N 49°12' W 122°56'0 0.0
2018-Feb-17 23:31N 49°12' W 122°56'0 0.0
2018-Feb-17 23:00N 49°12' W 122°56'0 0.0
2018-Feb-17 22:30N 49°12' W 122°56'0 0.0
2018-Feb-17 22:00N 49°12' W 122°56'0 0.0
2018-Feb-17 21:30N 49°12' W 122°56'0 0.0
2018-Feb-17 20:59N 49°12' W 122°56'0 0.0
2018-Feb-17 20:30N 49°12' W 122°56'0 0.0
2018-Feb-17 20:00N 49°12' W 122°56'0 0.0
2018-Feb-17 19:30N 49°12' W 122°56'0 0.0
2018-Feb-17 19:00N 49°12' W 122°56'0 0.0
2018-Feb-17 18:30N 49°12' W 122°56'0 0.0
2018-Feb-17 18:00N 49°12' W 122°56'0 0.0
2018-Feb-17 17:30N 49°12' W 122°56'0 0.0
2018-Feb-17 17:00N 49°12' W 122°56'0 0.0
2018-Feb-17 16:29N 49°12' W 122°56'0 0.0
2018-Feb-17 16:00N 49°12' W 122°56'0 0.0
2018-Feb-17 15:30N 49°12' W 122°56'0 0.0
2018-Feb-17 15:01N 49°12' W 122°56'0 0.0
2018-Feb-17 14:30N 49°12' W 122°56'0 0.0
2018-Feb-17 14:00N 49°12' W 122°56'1 1.6
2018-Feb-17 13:30N 49°12' W 122°55'1 2.0
2018-Feb-17 13:01N 49°11' W 122°56'1 1.7
2018-Feb-17 12:28N 49°12' W 122°57'2 3.9
2018-Feb-17 12:00N 49°11' W 122°60'3 5.4
2018-Feb-17 11:30N 49°12' W 123°04'0 0.1
2018-Feb-17 10:56N 49°12' W 123°04'0 0.1
2018-Feb-17 10:30N 49°12' W 123°04'2 4.4
2018-Feb-17 10:01N 49°12' W 123°07'3 6.1
2018-Feb-17 09:31N 49°13' W 123°12'3 6.4
2018-Feb-17 08:59N 49°15' W 123°16'3 5.8
2018-Feb-17 08:29N 49°16' W 123°20'2 4.2
2018-Feb-17 08:00N 49°15' W 123°23'1 1.3
2018-Feb-17 07:29N 49°15' W 123°23'1 2.1
2018-Feb-17 07:00N 49°15' W 123°21'1 2.1
2018-Feb-17 06:30N 49°16' W 123°22'1 1.3
2018-Feb-17 06:01N 49°16' W 123°23'1 1.5
2018-Feb-17 05:30N 49°15' W 123°23'1 1.7
2018-Feb-17 05:00N 49°15' W 123°22'2 3.0
2018-Feb-17 04:30N 49°15' W 123°20'2 4.8
2018-Feb-17 04:00N 49°15' W 123°16'3 6.1
2018-Feb-17 03:31N 49°13' W 123°12'3 5.5
2018-Feb-17 03:00N 49°12' W 123°09'3 4.9
2018-Feb-17 02:30N 49°12' W 123°05'2 4.8
2018-Feb-17 02:00N 49°12' W 123°01'2 4.4
2018-Feb-17 01:31N 49°11' W 122°58'2 4.0
2018-Feb-17 00:58N 49°12' W 122°55'1 2.4
2018-Feb-17 00:28N 49°11' W 122°56'0 0.1
2018-Feb-17 00:00N 49°11' W 122°57'1 1.8
2018-Feb-16 23:30N 49°12' W 122°57'3 6.3
2018-Feb-16 23:00N 49°12' W 123°02'1 2.4
2018-Feb-16 22:31N 49°12' W 123°04'0 0.0
2018-Feb-16 22:01N 49°12' W 123°04'0 0.0
2018-Feb-16 21:30N 49°12' W 123°04'0 0.0
2018-Feb-16 21:00N 49°12' W 123°04'0 0.0
2018-Feb-16 20:31N 49°12' W 123°04'0 0.0
2018-Feb-16 20:00N 49°12' W 123°04'0 0.0
2018-Feb-16 19:30N 49°12' W 123°04'0 0.0
2018-Feb-16 19:00N 49°12' W 123°04'0 0.0
2018-Feb-16 18:30N 49°12' W 123°04'0 0.0
2018-Feb-16 18:00N 49°12' W 123°04'0 0.0
2018-Feb-16 17:30N 49°12' W 123°04'0 0.0
2018-Feb-16 17:00N 49°12' W 123°04'0 0.0
2018-Feb-16 16:30N 49°12' W 123°04'0 0.0
2018-Feb-16 16:00N 49°12' W 123°04'0 0.0
2018-Feb-16 15:30N 49°12' W 123°04'0 0.0
2018-Feb-16 15:01N 49°12' W 123°04'0 0.0
2018-Feb-16 14:30N 49°12' W 123°04'0 0.0
2018-Feb-16 14:00N 49°12' W 123°04'0 0.0
2018-Feb-16 13:30N 49°12' W 123°04'0 0.0
2018-Feb-16 13:00N 49°12' W 123°04'0 0.0
2018-Feb-16 12:29N 49°12' W 123°04'0 0.0
2018-Feb-16 12:00N 49°12' W 123°04'0 0.0
2018-Feb-16 11:30N 49°12' W 123°04'0 0.0
2018-Feb-16 11:00N 49°12' W 123°04'0 0.0
2018-Feb-16 10:30N 49°12' W 123°04'0 0.0
2018-Feb-16 09:59N 49°12' W 123°04'0 0.0
2018-Feb-16 09:30N 49°12' W 123°04'0 0.0
2018-Feb-16 09:00N 49°12' W 123°04'0 0.0
2018-Feb-16 08:30N 49°12' W 123°04'0 0.0
2018-Feb-16 07:59N 49°12' W 123°04'0 0.0
2018-Feb-16 07:31N 49°12' W 123°04'0 0.0
2018-Feb-16 07:00N 49°12' W 123°04'0 0.0
2018-Feb-16 06:30N 49°12' W 123°04'0 0.0
2018-Feb-16 06:00N 49°12' W 123°04'0 0.0
2018-Feb-16 05:31N 49°12' W 123°04'0 0.0
2018-Feb-16 05:00N 49°12' W 123°04'0 0.0
2018-Feb-16 04:30N 49°12' W 123°04'0 0.0
2018-Feb-16 04:00N 49°12' W 123°04'0 0.0
2018-Feb-16 03:30N 49°12' W 123°04'0 0.0
2018-Feb-16 03:00N 49°12' W 123°04'0 0.0
2018-Feb-16 02:30N 49°12' W 123°04'0 0.0
2018-Feb-16 02:00N 49°12' W 123°04'0 0.0
2018-Feb-16 01:30N 49°12' W 123°04'0 0.0
2018-Feb-16 01:00N 49°12' W 123°04'0 0.0
2018-Feb-16 00:30N 49°12' W 123°04'0 0.0
2018-Feb-16 00:00N 49°12' W 123°04'0 0.0
2018-Feb-15 23:30N 49°12' W 123°04'0 0.0
2018-Feb-15 23:00N 49°12' W 123°04'0 0.0
2018-Feb-15 22:30N 49°12' W 123°04'0 0.0
2018-Feb-15 22:00N 49°12' W 123°04'0 0.0
2018-Feb-15 21:30N 49°12' W 123°04'0 0.0
2018-Feb-15 21:00N 49°12' W 123°04'0 0.0
2018-Feb-15 20:30N 49°12' W 123°04'0 0.0
2018-Feb-15 20:00N 49°12' W 123°04'0 0.0
2018-Feb-15 19:30N 49°12' W 123°04'0 0.0
2018-Feb-15 19:00N 49°12' W 123°04'0 0.0
2018-Feb-15 18:30N 49°12' W 123°04'0 0.0
2018-Feb-15 18:00N 49°12' W 123°04'0 0.0
2018-Feb-15 17:30N 49°12' W 123°04'0 0.0
2018-Feb-15 17:00N 49°12' W 123°04'0 0.0
2018-Feb-15 16:30N 49°12' W 123°04'0 0.0
2018-Feb-15 16:01N 49°12' W 123°04'0 0.0
2018-Feb-15 15:29N 49°12' W 123°04'0 0.0
2018-Feb-15 15:00N 49°12' W 123°04'0 0.0
2018-Feb-15 14:30N 49°12' W 123°04'0 0.0
2018-Feb-15 14:00N 49°12' W 123°04'0 0.0
2018-Feb-15 13:30N 49°12' W 123°04'0 0.0
2018-Feb-15 13:00N 49°12' W 123°04'0 0.0
2018-Feb-15 12:30N 49°12' W 123°04'0 0.0
2018-Feb-15 12:00N 49°12' W 123°04'0 0.0
2018-Feb-15 11:30N 49°12' W 123°04'0 0.0
2018-Feb-15 11:00N 49°12' W 123°04'0 0.0
2018-Feb-15 10:30N 49°12' W 123°04'0 0.0
2018-Feb-15 10:00N 49°12' W 123°04'0 0.0
2018-Feb-15 09:30N 49°12' W 123°04'0 0.0
2018-Feb-15 09:00N 49°12' W 123°04'0 0.0
2018-Feb-15 08:30N 49°12' W 123°04'0 0.0
2018-Feb-15 08:00N 49°12' W 123°04'0 0.0
2018-Feb-15 07:30N 49°12' W 123°04'0 0.0
2018-Feb-15 06:59N 49°12' W 123°04'0 0.0
2018-Feb-15 06:30N 49°12' W 123°04'0 0.0
2018-Feb-15 06:00N 49°12' W 123°04'0 0.0
2018-Feb-15 05:30N 49°12' W 123°04'0 0.0
2018-Feb-15 04:59N 49°12' W 123°04'0 0.0
2018-Feb-15 04:30N 49°12' W 123°04'0 0.0
2018-Feb-15 04:00N 49°12' W 123°04'0 0.0
2018-Feb-15 03:30N 49°12' W 123°04'0 0.0
2018-Feb-15 03:00N 49°12' W 123°04'0 0.0
2018-Feb-15 02:30N 49°12' W 123°04'0 0.0
2018-Feb-15 02:00N 49°12' W 123°04'  
Track history (hours):
 
Tides and Currents Weather Stations Pressure Air Temp Water Temp Dewpoint Dewpoint Depression Visibility Wind Speed Wind Dir Waves Ship Positions

Sea Imp Xi

Last reported at 2018-Feb-25 01:30 UTC. Time now 2018-Feb-25 01:51 UTC.
Position N 49°12' W 123°04'.

Length 16 m; draft 3.6 m.

Type: Tug. MMSI: 316034963.

Date/timePositionNaut miles runAvg speedWind from/ knotsBaromVisibWave heightAir tempDewpointWater temp
2018-Feb-25 01:30N 49°12' W 123°04'0 0.0
2018-Feb-25 01:00N 49°12' W 123°04'0 0.0
2018-Feb-25 00:30N 49°12' W 123°04'0 0.0
2018-Feb-25 00:00N 49°12' W 123°04'0 0.0
2018-Feb-24 23:30N 49°12' W 123°04'0 0.0
2018-Feb-24 23:00N 49°12' W 123°04'0 0.0
2018-Feb-24 22:30N 49°12' W 123°04'0 0.2
2018-Feb-24 22:00N 49°12' W 123°04'0 0.1
2018-Feb-24 21:30N 49°12' W 123°04'0 0.2
2018-Feb-24 21:00N 49°12' W 123°04'0 0.0
2018-Feb-24 20:30N 49°12' W 123°04'0 0.0
2018-Feb-24 20:00N 49°12' W 123°04'0 0.0
2018-Feb-24 19:30N 49°12' W 123°04'0 0.0
2018-Feb-24 19:00N 49°12' W 123°04'0 0.0
2018-Feb-24 18:29N 49°12' W 123°04'0 0.0
2018-Feb-24 18:00N 49°12' W 123°04'0 0.0
2018-Feb-24 17:30N 49°12' W 123°04'0 0.0
2018-Feb-24 16:58N 49°12' W 123°04'0 0.0
2018-Feb-24 16:29N 49°12' W 123°04'0 0.0
2018-Feb-24 16:00N 49°12' W 123°04'0 0.0
2018-Feb-24 15:30N 49°12' W 123°04'0 0.0
2018-Feb-24 14:59N 49°12' W 123°04'0 0.0
2018-Feb-24 14:30N 49°12' W 123°04'0 0.0
2018-Feb-24 14:00N 49°12' W 123°04'0 0.0
2018-Feb-24 13:30N 49°12' W 123°04'0 0.0
2018-Feb-24 13:00N 49°12' W 123°04'0 0.0
2018-Feb-24 12:30N 49°12' W 123°04'0 0.1
2018-Feb-24 12:00N 49°12' W 123°04'4 7.1
2018-Feb-24 11:30N 49°11' W 122°59'2 3.6
2018-Feb-24 11:00N 49°12' W 122°57'0 0.1
2018-Feb-24 10:30N 49°12' W 122°57'1 2.3
2018-Feb-24 10:00N 49°11' W 122°58'2 3.3
2018-Feb-24 09:30N 49°12' W 123°00'2 4.7
2018-Feb-24 09:00N 49°12' W 123°04'2 5.0
2018-Feb-24 08:30N 49°12' W 123°08'3 5.6
2018-Feb-24 08:00N 49°13' W 123°12'3 6.5
2018-Feb-24 07:28N 49°15' W 123°16'2 4.5
2018-Feb-24 07:00N 49°17' W 123°16'3 5.5
2018-Feb-24 06:30N 49°18' W 123°12'3 5.3
2018-Feb-24 06:00N 49°19' W 123°08'2 4.3
2018-Feb-24 05:30N 49°18' W 123°05'3 5.2
2018-Feb-24 05:00N 49°18' W 123°01'3 5.3
2018-Feb-24 04:30N 49°18' W 122°57'3 5.9
2018-Feb-24 04:00N 49°18' W 122°53'0 0.3
2018-Feb-24 03:30N 49°18' W 122°53'0 0.2
2018-Feb-24 03:00N 49°18' W 122°53'0 0.0
2018-Feb-24 02:30N 49°18' W 122°53'0 0.0
2018-Feb-24 02:00N 49°18' W 122°53'0 0.0
2018-Feb-24 01:30N 49°18' W 122°53'0 0.0
2018-Feb-24 01:00N 49°18' W 122°53'0 0.3
2018-Feb-24 00:30N 49°18' W 122°52'0 0.3
2018-Feb-24 00:00N 49°18' W 122°53'4 8.1
2018-Feb-23 23:30N 49°18' W 122°59'3 6.3
2018-Feb-23 23:00N 49°18' W 123°04'3 6.2
2018-Feb-23 22:30N 49°19' W 123°08'3 6.5
2018-Feb-23 22:00N 49°19' W 123°13'3 6.7
2018-Feb-23 21:30N 49°17' W 123°18'4 8.4
2018-Feb-23 21:00N 49°14' W 123°13'4 8.1
2018-Feb-23 20:30N 49°12' W 123°08'4 7.8
2018-Feb-23 20:00N 49°12' W 123°02'3 6.1
2018-Feb-23 19:30N 49°12' W 122°57'2 4.1
2018-Feb-23 19:00N 49°10' W 122°56'3 5.9
2018-Feb-23 18:30N 49°09' W 123°01'0 0.1
2018-Feb-23 18:00N 49°09' W 123°01'1 1.3
2018-Feb-23 17:30N 49°09' W 123°02'1 1.3
2018-Feb-23 17:00N 49°09' W 123°01'3 6.2
2018-Feb-23 16:30N 49°10' W 122°56'2 4.3
2018-Feb-23 16:00N 49°12' W 122°57'2 4.1
2018-Feb-23 15:30N 49°11' W 122°59'3 6.2
2018-Feb-23 15:00N 49°12' W 123°04'0 0.0
2018-Feb-23 14:30N 49°12' W 123°04'0 0.0
2018-Feb-23 14:00N 49°12' W 123°04'0 0.0
2018-Feb-23 13:30N 49°12' W 123°04'0 0.0
2018-Feb-23 13:00N 49°12' W 123°04'0 0.0
2018-Feb-23 12:29N 49°12' W 123°04'0 0.0
2018-Feb-23 12:00N 49°12' W 123°04'0 0.0
2018-Feb-23 11:30N 49°12' W 123°04'0 0.0
2018-Feb-23 11:00N 49°12' W 123°04'0 0.0
2018-Feb-23 10:30N 49°12' W 123°04'0 0.0
2018-Feb-23 10:00N 49°12' W 123°04'0 0.0
2018-Feb-23 09:30N 49°12' W 123°04'0 0.0
2018-Feb-23 09:00N 49°12' W 123°04'0 0.0
2018-Feb-23 08:30N 49°12' W 123°04'0 0.0
2018-Feb-23 07:59N 49°12' W 123°04'0 0.0
2018-Feb-23 07:30N 49°12' W 123°04'0 0.0
2018-Feb-23 07:00N 49°12' W 123°04'0 0.0
2018-Feb-23 06:30N 49°12' W 123°04'0 0.0
2018-Feb-23 05:59N 49°12' W 123°04'0 0.0
2018-Feb-23 05:30N 49°12' W 123°04'0 0.0
2018-Feb-23 05:00N 49°12' W 123°04'0 0.0
2018-Feb-23 04:30N 49°12' W 123°04'0 0.1
2018-Feb-23 04:00N 49°12' W 123°04'0 0.1
2018-Feb-23 03:30N 49°12' W 123°04'0 0.0
2018-Feb-23 02:59N 49°12' W 123°04'0 0.0
2018-Feb-23 02:30N 49°12' W 123°04'0 0.0
2018-Feb-23 02:00N 49°12' W 123°04'0 0.0
2018-Feb-23 01:30N 49°12' W 123°04'0 0.1
2018-Feb-23 01:00N 49°12' W 123°04'0 0.0
2018-Feb-23 00:30N 49°12' W 123°04'0 0.0
2018-Feb-23 00:00N 49°12' W 123°04'0 0.0
2018-Feb-22 23:30N 49°12' W 123°04'0 0.0
2018-Feb-22 23:00N 49°12' W 123°04'0 0.0
2018-Feb-22 22:30N 49°12' W 123°04'2 3.7
2018-Feb-22 22:00N 49°12' W 123°01'3 6.8
2018-Feb-22 21:30N 49°12' W 122°56'4 7.8
2018-Feb-22 21:00N 49°13' W 122°50'3 5.1
2018-Feb-22 20:29N 49°14' W 122°46'2 4.0
2018-Feb-22 20:00N 49°15' W 122°44'1 1.3
2018-Feb-22 19:30N 49°15' W 122°43'1 2.9
2018-Feb-22 19:00N 49°17' W 122°42'2 3.8
2018-Feb-22 18:30N 49°18' W 122°40'0 0.2
2018-Feb-22 18:01N 49°18' W 122°40'0 0.1
2018-Feb-22 17:31N 49°17' W 122°40'3 5.0
2018-Feb-22 17:00N 49°16' W 122°43'2 4.0
2018-Feb-22 16:30N 49°14' W 122°45'3 5.4
2018-Feb-22 16:00N 49°13' W 122°48'0 0.0
2018-Feb-22 15:30N 49°13' W 122°48'0 0.0
2018-Feb-22 15:00N 49°13' W 122°48'0 0.0
2018-Feb-22 14:30N 49°13' W 122°48'0 0.0
2018-Feb-22 14:00N 49°13' W 122°48'0 0.7
2018-Feb-22 13:30N 49°13' W 122°48'2 4.8
2018-Feb-22 13:00N 49°14' W 122°45'2 3.0
2018-Feb-22 12:30N 49°14' W 122°47'2 4.2
2018-Feb-22 12:00N 49°13' W 122°50'0 0.2
2018-Feb-22 11:30N 49°13' W 122°50'0 0.0
2018-Feb-22 11:00N 49°13' W 122°50'0 0.0
2018-Feb-22 10:30N 49°13' W 122°50'0 0.0
2018-Feb-22 10:00N 49°13' W 122°50'0 0.0
2018-Feb-22 09:30N 49°13' W 122°50'3 5.1
2018-Feb-22 09:00N 49°12' W 122°54'4 7.3
2018-Feb-22 08:30N 49°11' W 122°59'3 6.7
2018-Feb-22 08:00N 49°12' W 123°03'1 2.8
2018-Feb-22 07:30N 49°12' W 123°05'0 0.6
2018-Feb-22 07:00N 49°12' W 123°05'0 0.8
2018-Feb-22 06:30N 49°12' W 123°05'3 6.8
2018-Feb-22 06:00N 49°13' W 123°11'4 8.8
2018-Feb-22 05:30N 49°15' W 123°16'3 5.9
2018-Feb-22 05:00N 49°15' W 123°21'3 5.9
2018-Feb-22 04:29N 49°15' W 123°16'3 5.4
2018-Feb-22 04:00N 49°13' W 123°13'3 5.4
2018-Feb-22 03:30N 49°12' W 123°09'2 4.3
2018-Feb-22 03:00N 49°12' W 123°06'0 0.7
2018-Feb-22 02:30N 49°12' W 123°05'0 0.0
2018-Feb-22 02:00N 49°12' W 123°05'0 0.0
2018-Feb-22 01:28N 49°12' W 123°05'0 0.0
2018-Feb-22 00:59N 49°12' W 123°05'0 1.0
2018-Feb-22 00:30N 49°12' W 123°05'1 1.1
2018-Feb-22 00:00N 49°12' W 123°04'0 0.0
2018-Feb-21 23:30N 49°12' W 123°04'1 2.1
2018-Feb-21 23:00N 49°12' W 123°05'3 5.6
2018-Feb-21 22:30N 49°13' W 123°10'3 6.2
2018-Feb-21 22:00N 49°14' W 123°14'3 6.0
2018-Feb-21 21:30N 49°16' W 123°17'3 5.6
2018-Feb-21 21:00N 49°18' W 123°14'4 8.5
2018-Feb-21 20:31N 49°19' W 123°08'5 9.4
2018-Feb-21 20:00N 49°18' W 123°01'4 8.8
2018-Feb-21 19:30N 49°18' W 122°54'1 1.6
2018-Feb-21 19:00N 49°18' W 122°53'0 0.9
2018-Feb-21 18:31N 49°17' W 122°52'0 0.6
2018-Feb-21 18:00N 49°17' W 122°52'0 0.0
2018-Feb-21 17:30N 49°17' W 122°52'0 0.0
2018-Feb-21 17:00N 49°17' W 122°52'0 0.4
2018-Feb-21 16:30N 49°17' W 122°52'0 0.0
2018-Feb-21 16:00N 49°17' W 122°52'0 0.3
2018-Feb-21 15:30N 49°17' W 122°52'0 0.1
2018-Feb-21 15:01N 49°17' W 122°52'0 0.2
2018-Feb-21 14:30N 49°17' W 122°52'1 2.4
2018-Feb-21 14:00N 49°18' W 122°54'1 2.5
2018-Feb-21 13:30N 49°18' W 122°55'1 1.2
2018-Feb-21 13:00N 49°18' W 122°56'0 0.7
2018-Feb-21 12:30N 49°18' W 122°56'1 1.3
2018-Feb-21 12:00N 49°18' W 122°57'3 5.2
2018-Feb-21 11:30N 49°18' W 123°01'2 4.1
2018-Feb-21 11:00N 49°18' W 123°04'2 4.3
2018-Feb-21 10:30N 49°18' W 123°07'3 5.3
2018-Feb-21 10:00N 49°19' W 123°11'3 6.2
2018-Feb-21 09:29N 49°18' W 123°16'3 5.6
2018-Feb-21 09:00N 49°16' W 123°18'3 5.8
2018-Feb-21 08:31N 49°13' W 123°18'3 5.8
2018-Feb-21 08:00N 49°10' W 123°18'3 5.5
2018-Feb-21 07:30N 49°07' W 123°19'2 3.9
2018-Feb-21 07:00N 49°07' W 123°16'3 6.1
2018-Feb-21 06:30N 49°07' W 123°11'3 6.4
2018-Feb-21 06:00N 49°07' W 123°06'3 5.9
2018-Feb-21 05:30N 49°09' W 123°03'3 5.4
2018-Feb-21 04:54N 49°09' W 122°58'2 5.0
2018-Feb-21 04:30N 49°11' W 122°55'1 2.7
2018-Feb-21 04:00N 49°12' W 122°56'0 0.2
2018-Feb-21 03:30N 49°12' W 122°57'0 0.0
2018-Feb-21 03:00N 49°12' W 122°57'0 0.2
2018-Feb-21 02:30N 49°12' W 122°57'0 0.0
2018-Feb-21 02:00N 49°12' W 122°57'2 3.3
2018-Feb-21 01:29N 49°12' W 122°54'0 0.8
2018-Feb-21 01:00N 49°12' W 122°53'0 1.0
2018-Feb-21 00:30N 49°13' W 122°53'4 7.6
2018-Feb-20 23:58N 49°13' W 122°47'4 8.5
2018-Feb-20 23:30N 49°12' W 122°41'4 7.0
2018-Feb-20 22:59N 49°12' W 122°35'1 1.6
2018-Feb-20 22:30N 49°11' W 122°34'0 0.0
2018-Feb-20 21:59N 49°11' W 122°34'0 0.0
2018-Feb-20 21:29N 49°11' W 122°34'0 0.0
2018-Feb-20 21:00N 49°11' W 122°34'0 0.0
2018-Feb-20 20:30N 49°11' W 122°34'0 0.3
2018-Feb-20 19:56N 49°11' W 122°34'0 0.2
2018-Feb-20 19:30N 49°11' W 122°34'0 0.1
2018-Feb-20 19:00N 49°11' W 122°34'0 0.0
2018-Feb-20 18:30N 49°11' W 122°34'0 0.0
2018-Feb-20 18:00N 49°11' W 122°34'0 0.0
2018-Feb-20 17:30N 49°11' W 122°34'0 0.0
2018-Feb-20 16:58N 49°11' W 122°34'0 0.0
2018-Feb-20 16:30N 49°11' W 122°34'0 0.0
2018-Feb-20 15:59N 49°11' W 122°34'0 0.2
2018-Feb-20 15:30N 49°11' W 122°34'0 0.1
2018-Feb-20 14:53N 49°11' W 122°34'2 5.7
2018-Feb-20 14:30N 49°13' W 122°36'4 8.0
2018-Feb-20 14:00N 49°12' W 122°42'4 9.0
2018-Feb-20 13:30N 49°13' W 122°49'4 8.0
2018-Feb-20 13:00N 49°12' W 122°55'3 7.1
2018-Feb-20 12:30N 49°10' W 122°59'2 4.1
2018-Feb-20 12:00N 49°11' W 122°57'2 3.5
2018-Feb-20 11:30N 49°10' W 122°59'2 4.9
2018-Feb-20 11:00N 49°11' W 122°55'1 2.7
2018-Feb-20 10:30N 49°12' W 122°57'2 3.6
2018-Feb-20 10:00N 49°12' W 122°54'4 6.8
2018-Feb-20 09:22N 49°13' W 122°48'0 0.0
2018-Feb-20 09:00N 49°13' W 122°48'0 0.0
2018-Feb-20 08:17N 49°13' W 122°48'0 0.0
2018-Feb-20 08:00N 49°13' W 122°48'0 0.0
2018-Feb-20 07:30N 49°13' W 122°48'0 0.0
2018-Feb-20 07:00N 49°13' W 122°48'0 0.1
2018-Feb-20 06:30N 49°13' W 122°48'0 0.0
2018-Feb-20 06:00N 49°13' W 122°48'0 0.0
2018-Feb-20 05:30N 49°13' W 122°48'1 1.3
2018-Feb-20 05:00N 49°13' W 122°49'0 0.1
2018-Feb-20 04:30N 49°13' W 122°49'2 3.3
2018-Feb-20 04:00N 49°13' W 122°51'3 6.9
2018-Feb-20 03:30N 49°12' W 122°56'0 0.8
2018-Feb-20 03:00N 49°12' W 122°57'0 0.1
2018-Feb-20 02:29N 49°12' W 122°57'0 0.7
2018-Feb-20 02:00N 49°12' W 122°56'1 2.1
2018-Feb-20 01:30N 49°12' W 122°55'1 3.0
2018-Feb-20 01:00N 49°13' W 122°53'510.2
2018-Feb-20 00:30N 49°13' W 122°45'4 8.6
2018-Feb-20 00:00N 49°12' W 122°38'3 6.1
2018-Feb-19 23:30N 49°11' W 122°34'0 0.8
2018-Feb-19 22:59N 49°11' W 122°35'2 4.2
2018-Feb-19 22:24N 49°12' W 122°38'2 5.0
2018-Feb-19 22:01N 49°12' W 122°41'3 5.0
2018-Feb-19 21:28N 49°13' W 122°45'2 5.0
2018-Feb-19 21:00N 49°13' W 122°48'3 5.2
2018-Feb-19 20:30N 49°13' W 122°52'2 4.2
2018-Feb-19 20:00N 49°12' W 122°55'1 1.6
2018-Feb-19 19:30N 49°11' W 122°55'1 2.6
2018-Feb-19 19:00N 49°10' W 122°56'2 3.3
2018-Feb-19 18:30N 49°09' W 122°59'2 4.0
2018-Feb-19 18:00N 49°09' W 123°02'2 4.5
2018-Feb-19 17:30N 49°08' W 123°04'3 5.3
2018-Feb-19 17:00N 49°06' W 123°08'3 6.7
2018-Feb-19 16:30N 49°08' W 123°13'3 6.1
2018-Feb-19 16:00N 49°07' W 123°17'2 4.6
2018-Feb-19 15:30N 49°08' W 123°20'3 6.0
2018-Feb-19 14:58N 49°10' W 123°23'3 6.4
2018-Feb-19 14:30N 49°13' W 123°26'4 6.6
2018-Feb-19 13:58N 49°16' W 123°28'4 7.5
2018-Feb-19 13:29N 49°19' W 123°31'3 6.0
2018-Feb-19 13:00N 49°22' W 123°31'2 3.2
2018-Feb-19 12:30N 49°20' W 123°30'4 7.8
2018-Feb-19 12:00N 49°18' W 123°25'4 8.5
2018-Feb-19 11:30N 49°16' W 123°19'4 7.7
2018-Feb-19 11:00N 49°14' W 123°14'4 7.6
2018-Feb-19 10:30N 49°13' W 123°09'4 6.1
2018-Feb-19 09:55N 49°12' W 123°04'0 0.0
2018-Feb-19 09:28N 49°12' W 123°04'0 0.0
2018-Feb-19 08:58N 49°12' W 123°04'0 0.0
2018-Feb-19 08:25N 49°12' W 123°04'0 0.0
2018-Feb-19 08:00N 49°12' W 123°04'0 0.0
2018-Feb-19 07:30N 49°12' W 123°04'0 0.0
2018-Feb-19 07:00N 49°12' W 123°04'0 0.0
2018-Feb-19 06:30N 49°12' W 123°04'0 0.0
2018-Feb-19 05:58N 49°12' W 123°04'0 0.0
2018-Feb-19 05:30N 49°12' W 123°04'0 0.0
2018-Feb-19 05:00N 49°12' W 123°04'0 0.0
2018-Feb-19 04:30N 49°12' W 123°04'0 0.0
2018-Feb-19 04:00N 49°12' W 123°04'0 0.0
2018-Feb-19 03:27N 49°12' W 123°04'0 0.0
2018-Feb-19 03:00N 49°12' W 123°04'0 0.0
2018-Feb-19 02:30N 49°12' W 123°04'0 0.0
2018-Feb-19 01:54N 49°12' W 123°04'0 0.0
2018-Feb-19 01:29N 49°12' W 123°04'0 0.0
2018-Feb-19 01:00N 49°12' W 123°04'0 0.0
2018-Feb-19 00:27N 49°12' W 123°04'0 0.0
2018-Feb-19 00:00N 49°12' W 123°04'0 0.0
2018-Feb-18 23:30N 49°12' W 123°04'0 0.0
2018-Feb-18 23:00N 49°12' W 123°04'0 0.0
2018-Feb-18 22:30N 49°12' W 123°04'0 0.0
2018-Feb-18 21:59N 49°12' W 123°04'0 0.0
2018-Feb-18 21:30N 49°12' W 123°04'0 0.0
2018-Feb-18 20:59N 49°12' W 123°04'0 0.0
2018-Feb-18 20:30N 49°12' W 123°04'0 0.0
2018-Feb-18 19:58N 49°12' W 123°04'0 0.0
2018-Feb-18 19:30N 49°12' W 123°04'0 0.0
2018-Feb-18 18:59N 49°12' W 123°04'0 0.0
2018-Feb-18 18:29N 49°12' W 123°04'0 0.0
2018-Feb-18 18:00N 49°12' W 123°04'0 0.0
2018-Feb-18 17:30N 49°12' W 123°04'0 0.0
2018-Feb-18 16:58N 49°12' W 123°04'0 0.0
2018-Feb-18 16:30N 49°12' W 123°04'0 0.0
2018-Feb-18 16:00N 49°12' W 123°04'0 0.0
2018-Feb-18 15:30N 49°12' W 123°04'1 2.4
2018-Feb-18 15:00N 49°12' W 123°02'3 6.3
2018-Feb-18 14:30N 49°12' W 122°57'1 1.8
2018-Feb-18 14:00N 49°11' W 122°56'1 2.4
2018-Feb-18 13:30N 49°12' W 122°55'3 5.2
2018-Feb-18 13:00N 49°11' W 122°59'3 5.4
2018-Feb-18 12:29N 49°12' W 123°03'4 7.0
2018-Feb-18 11:58N 49°12' W 123°08'3 6.6
2018-Feb-18 11:30N 49°13' W 123°12'4 7.2
2018-Feb-18 11:00N 49°15' W 123°17'2 3.4
2018-Feb-18 10:30N 49°16' W 123°19'2 3.0
2018-Feb-18 09:44N 49°16' W 123°23'1 1.1
2018-Feb-18 09:08N 49°15' W 123°23'0 1.4
2018-Feb-18 08:46N 49°15' W 123°22'1 0.7
2018-Feb-18 07:46N 49°16' W 123°23'1 1.0
2018-Feb-18 07:13N 49°15' W 123°23'0 1.0
2018-Feb-18 06:52N 49°16' W 123°22'0 1.1
2018-Feb-18 06:29N 49°16' W 123°21'2 4.8
2018-Feb-18 06:00N 49°16' W 123°18'3 5.7
2018-Feb-18 05:30N 49°14' W 123°14'3 6.6
2018-Feb-18 04:59N 49°13' W 123°10'3 5.3
2018-Feb-18 04:30N 49°12' W 123°06'3 5.1
2018-Feb-18 04:00N 49°12' W 123°02'3 5.1
2018-Feb-18 03:30N 49°11' W 122°58'2 4.2
2018-Feb-18 02:59N 49°12' W 122°56'1 2.0
2018-Feb-18 02:29N 49°11' W 122°56'0 0.3
2018-Feb-18 01:58N 49°11' W 122°56'0 0.0
2018-Feb-18 01:31N 49°11' W 122°56'0 0.0
2018-Feb-18 01:01N 49°11' W 122°56'0 0.9
2018-Feb-18 00:30N 49°11' W 122°56'1 1.8
2018-Feb-18 00:00N 49°12' W 122°56'0 0.0
2018-Feb-17 23:31N 49°12' W 122°56'0 0.0
2018-Feb-17 23:00N 49°12' W 122°56'0 0.0
2018-Feb-17 22:30N 49°12' W 122°56'0 0.0
2018-Feb-17 22:00N 49°12' W 122°56'0 0.0
2018-Feb-17 21:30N 49°12' W 122°56'0 0.0
2018-Feb-17 20:59N 49°12' W 122°56'0 0.0
2018-Feb-17 20:30N 49°12' W 122°56'0 0.0
2018-Feb-17 20:00N 49°12' W 122°56'0 0.0
2018-Feb-17 19:30N 49°12' W 122°56'0 0.0
2018-Feb-17 19:00N 49°12' W 122°56'0 0.0
2018-Feb-17 18:30N 49°12' W 122°56'0 0.0
2018-Feb-17 18:00N 49°12' W 122°56'0 0.0
2018-Feb-17 17:30N 49°12' W 122°56'0 0.0
2018-Feb-17 17:00N 49°12' W 122°56'0 0.0
2018-Feb-17 16:29N 49°12' W 122°56'0 0.0
2018-Feb-17 16:00N 49°12' W 122°56'0 0.0
2018-Feb-17 15:30N 49°12' W 122°56'0 0.0
2018-Feb-17 15:01N 49°12' W 122°56'0 0.0
2018-Feb-17 14:30N 49°12' W 122°56'0 0.0
2018-Feb-17 14:00N 49°12' W 122°56'1 1.6
2018-Feb-17 13:30N 49°12' W 122°55'1 2.0
2018-Feb-17 13:01N 49°11' W 122°56'1 1.7
2018-Feb-17 12:28N 49°12' W 122°57'2 3.9
2018-Feb-17 12:00N 49°11' W 122°60'3 5.4
2018-Feb-17 11:30N 49°12' W 123°04'0 0.1
2018-Feb-17 10:56N 49°12' W 123°04'0 0.1
2018-Feb-17 10:30N 49°12' W 123°04'2 4.4
2018-Feb-17 10:01N 49°12' W 123°07'3 6.1
2018-Feb-17 09:31N 49°13' W 123°12'3 6.4
2018-Feb-17 08:59N 49°15' W 123°16'3 5.8
2018-Feb-17 08:29N 49°16' W 123°20'2 4.2
2018-Feb-17 08:00N 49°15' W 123°23'1 1.3
2018-Feb-17 07:29N 49°15' W 123°23'1 2.1
2018-Feb-17 07:00N 49°15' W 123°21'1 2.1
2018-Feb-17 06:30N 49°16' W 123°22'1 1.3
2018-Feb-17 06:01N 49°16' W 123°23'1 1.5
2018-Feb-17 05:30N 49°15' W 123°23'1 1.7
2018-Feb-17 05:00N 49°15' W 123°22'2 3.0
2018-Feb-17 04:30N 49°15' W 123°20'2 4.8
2018-Feb-17 04:00N 49°15' W 123°16'3 6.1
2018-Feb-17 03:31N 49°13' W 123°12'3 5.5
2018-Feb-17 03:00N 49°12' W 123°09'3 4.9
2018-Feb-17 02:30N 49°12' W 123°05'2 4.8
2018-Feb-17 02:00N 49°12' W 123°01'2 4.4
2018-Feb-17 01:31N 49°11' W 122°58'2 4.0
2018-Feb-17 00:58N 49°12' W 122°55'1 2.4
2018-Feb-17 00:28N 49°11' W 122°56'0 0.1
2018-Feb-17 00:00N 49°11' W 122°57'1 1.8
2018-Feb-16 23:30N 49°12' W 122°57'3 6.3
2018-Feb-16 23:00N 49°12' W 123°02'1 2.4
2018-Feb-16 22:31N 49°12' W 123°04'0 0.0
2018-Feb-16 22:01N 49°12' W 123°04'0 0.0
2018-Feb-16 21:30N 49°12' W 123°04'0 0.0
2018-Feb-16 21:00N 49°12' W 123°04'0 0.0
2018-Feb-16 20:31N 49°12' W 123°04'0 0.0
2018-Feb-16 20:00N 49°12' W 123°04'0 0.0
2018-Feb-16 19:30N 49°12' W 123°04'0 0.0
2018-Feb-16 19:00N 49°12' W 123°04'0 0.0
2018-Feb-16 18:30N 49°12' W 123°04'0 0.0
2018-Feb-16 18:00N 49°12' W 123°04'0 0.0
2018-Feb-16 17:30N 49°12' W 123°04'0 0.0
2018-Feb-16 17:00N 49°12' W 123°04'0 0.0
2018-Feb-16 16:30N 49°12' W 123°04'0 0.0
2018-Feb-16 16:00N 49°12' W 123°04'0 0.0
2018-Feb-16 15:30N 49°12' W 123°04'0 0.0
2018-Feb-16 15:01N 49°12' W 123°04'0 0.0
2018-Feb-16 14:30N 49°12' W 123°04'0 0.0
2018-Feb-16 14:00N 49°12' W 123°04'0 0.0
2018-Feb-16 13:30N 49°12' W 123°04'0 0.0
2018-Feb-16 13:00N 49°12' W 123°04'0 0.0
2018-Feb-16 12:29N 49°12' W 123°04'0 0.0
2018-Feb-16 12:00N 49°12' W 123°04'0 0.0
2018-Feb-16 11:30N 49°12' W 123°04'0 0.0
2018-Feb-16 11:00N 49°12' W 123°04'0 0.0
2018-Feb-16 10:30N 49°12' W 123°04'0 0.0
2018-Feb-16 09:59N 49°12' W 123°04'0 0.0
2018-Feb-16 09:30N 49°12' W 123°04'0 0.0
2018-Feb-16 09:00N 49°12' W 123°04'0 0.0
2018-Feb-16 08:30N 49°12' W 123°04'0 0.0
2018-Feb-16 07:59N 49°12' W 123°04'0 0.0
2018-Feb-16 07:31N 49°12' W 123°04'0 0.0
2018-Feb-16 07:00N 49°12' W 123°04'0 0.0
2018-Feb-16 06:30N 49°12' W 123°04'0 0.0
2018-Feb-16 06:00N 49°12' W 123°04'0 0.0
2018-Feb-16 05:31N 49°12' W 123°04'0 0.0
2018-Feb-16 05:00N 49°12' W 123°04'0 0.0
2018-Feb-16 04:30N 49°12' W 123°04'0 0.0
2018-Feb-16 04:00N 49°12' W 123°04'0 0.0
2018-Feb-16 03:30N 49°12' W 123°04'0 0.0
2018-Feb-16 03:00N 49°12' W 123°04'0 0.0
2018-Feb-16 02:30N 49°12' W 123°04'0 0.0
2018-Feb-16 02:00N 49°12' W 123°04'0 0.0
2018-Feb-16 01:30N 49°12' W 123°04'0 0.0
2018-Feb-16 01:00N 49°12' W 123°04'0 0.0
2018-Feb-16 00:30N 49°12' W 123°04'0 0.0
2018-Feb-16 00:00N 49°12' W 123°04'0 0.0
2018-Feb-15 23:30N 49°12' W 123°04'0 0.0
2018-Feb-15 23:00N 49°12' W 123°04'0 0.0
2018-Feb-15 22:30N 49°12' W 123°04'0 0.0
2018-Feb-15 22:00N 49°12' W 123°04'0 0.0
2018-Feb-15 21:30N 49°12' W 123°04'0 0.0
2018-Feb-15 21:00N 49°12' W 123°04'0 0.0
2018-Feb-15 20:30N 49°12' W 123°04'0 0.0
2018-Feb-15 20:00N 49°12' W 123°04'0 0.0
2018-Feb-15 19:30N 49°12' W 123°04'0 0.0
2018-Feb-15 19:00N 49°12' W 123°04'0 0.0
2018-Feb-15 18:30N 49°12' W 123°04'0 0.0
2018-Feb-15 18:00N 49°12' W 123°04'0 0.0
2018-Feb-15 17:30N 49°12' W 123°04'0 0.0
2018-Feb-15 17:00N 49°12' W 123°04'0 0.0
2018-Feb-15 16:30N 49°12' W 123°04'0 0.0
2018-Feb-15 16:01N 49°12' W 123°04'0 0.0
2018-Feb-15 15:29N 49°12' W 123°04'0 0.0
2018-Feb-15 15:00N 49°12' W 123°04'0 0.0
2018-Feb-15 14:30N 49°12' W 123°04'0 0.0
2018-Feb-15 14:00N 49°12' W 123°04'0 0.0
2018-Feb-15 13:30N 49°12' W 123°04'0 0.0
2018-Feb-15 13:00N 49°12' W 123°04'0 0.0
2018-Feb-15 12:30N 49°12' W 123°04'0 0.0
2018-Feb-15 12:00N 49°12' W 123°04'0 0.0
2018-Feb-15 11:30N 49°12' W 123°04'0 0.0
2018-Feb-15 11:00N 49°12' W 123°04'0 0.0
2018-Feb-15 10:30N 49°12' W 123°04'0 0.0
2018-Feb-15 10:00N 49°12' W 123°04'0 0.0
2018-Feb-15 09:30N 49°12' W 123°04'0 0.0
2018-Feb-15 09:00N 49°12' W 123°04'0 0.0
2018-Feb-15 08:30N 49°12' W 123°04'0 0.0
2018-Feb-15 08:00N 49°12' W 123°04'0 0.0
2018-Feb-15 07:30N 49°12' W 123°04'0 0.0
2018-Feb-15 06:59N 49°12' W 123°04'0 0.0
2018-Feb-15 06:30N 49°12' W 123°04'0 0.0
2018-Feb-15 06:00N 49°12' W 123°04'0 0.0
2018-Feb-15 05:30N 49°12' W 123°04'0 0.0
2018-Feb-15 04:59N 49°12' W 123°04'0 0.0
2018-Feb-15 04:30N 49°12' W 123°04'0 0.0
2018-Feb-15 04:00N 49°12' W 123°04'0 0.0
2018-Feb-15 03:30N 49°12' W 123°04'0 0.0
2018-Feb-15 03:00N 49°12' W 123°04'0 0.0
2018-Feb-15 02:30N 49°12' W 123°04'0 0.0
2018-Feb-15 02:00N 49°12' W 123°04'  

Dump ship's entire track history